sensor_id;sensor_type;location;lat;lon;timestamp;noise_LAeq;noise_LA_min;noise_LA_max;noise_LA01;noise_LA95
57092;Laerm;42968;52.094;4.328;2023-04-03T00:00:28;54.02;37.12;75.29;;
57092;Laerm;42968;52.094;4.328;2023-04-03T00:02:53;40.91;36.45;44.97;;
57092;Laerm;42968;52.094;4.328;2023-04-03T00:05:18;53.69;38.67;69.90;;
57092;Laerm;42968;52.094;4.328;2023-04-03T00:07:43;54.55;37.12;70.88;;
57092;Laerm;42968;52.094;4.328;2023-04-03T00:10:09;57.78;36.91;75.87;;
57092;Laerm;42968;52.094;4.328;2023-04-03T00:12:35;40.39;36.45;56.02;;
57092;Laerm;42968;52.094;4.328;2023-04-03T00:15:00;54.45;35.36;70.87;;
57092;Laerm;42968;52.094;4.328;2023-04-03T00:17:25;40.51;36.45;49.34;;
57092;Laerm;42968;52.094;4.328;2023-04-03T00:19:50;52.75;36.69;68.86;;
57092;Laerm;42968;52.094;4.328;2023-04-03T00:22:16;53.58;37.32;73.07;;
57092;Laerm;42968;52.094;4.328;2023-04-03T00:24:41;40.80;37.70;45.99;;
57092;Laerm;42968;52.094;4.328;2023-04-03T00:27:06;40.03;36.45;43.19;;
57092;Laerm;42968;52.094;4.328;2023-04-03T00:29:32;45.98;36.56;61.43;;
57092;Laerm;42968;52.094;4.328;2023-04-03T00:31:57;58.84;36.69;71.68;;
57092;Laerm;42968;52.094;4.328;2023-04-03T00:34:22;41.25;36.91;52.12;;
57092;Laerm;42968;52.094;4.328;2023-04-03T00:36:48;40.51;36.69;47.20;;
57092;Laerm;42968;52.094;4.328;2023-04-03T00:39:13;55.10;37.32;76.16;;
57092;Laerm;42968;52.094;4.328;2023-04-03T00:41:38;58.81;38.05;75.19;;
57092;Laerm;42968;52.094;4.328;2023-04-03T00:45:18;54.71;37.52;70.04;;
57092;Laerm;42968;52.094;4.328;2023-04-03T00:47:11;47.60;36.91;63.78;;
57092;Laerm;42968;52.094;4.328;2023-04-03T00:49:37;41.81;36.69;53.17;;
57092;Laerm;42968;52.094;4.328;2023-04-03T00:52:04;57.08;36.91;72.76;;
57092;Laerm;42968;52.094;4.328;2023-04-03T00:54:31;53.38;36.45;69.96;;
57092;Laerm;42968;52.094;4.328;2023-04-03T00:56:57;55.44;36.20;70.07;;
57092;Laerm;42968;52.094;4.328;2023-04-03T01:00:06;50.76;37.52;70.10;;
57092;Laerm;42968;52.094;4.328;2023-04-03T01:02:11;60.59;38.37;74.35;;
57092;Laerm;42968;52.094;4.328;2023-04-03T01:04:38;59.05;39.08;76.06;;
57092;Laerm;42968;52.094;4.328;2023-04-03T01:09:36;39.55;35.36;43.81;;
57092;Laerm;42968;52.094;4.328;2023-04-03T01:14:45;51.39;35.66;67.46;;
57092;Laerm;42968;52.094;4.328;2023-04-03T01:17:27;53.85;36.45;69.35;;
57092;Laerm;42968;52.094;4.328;2023-04-03T01:22:33;41.22;36.45;49.28;;
57092;Laerm;42968;52.094;4.328;2023-04-03T01:25:01;58.95;37.12;73.96;;
57092;Laerm;42968;52.094;4.328;2023-04-03T01:27:26;39.41;36.20;42.16;;
57092;Laerm;42968;52.094;4.328;2023-04-03T01:29:52;40.14;36.20;44.80;;
57092;Laerm;42968;52.094;4.328;2023-04-03T01:32:17;43.23;37.52;62.98;;
57092;Laerm;42968;52.094;4.328;2023-04-03T01:34:43;42.74;37.70;50.54;;
57092;Laerm;42968;52.094;4.328;2023-04-03T01:37:08;52.16;37.12;71.19;;
57092;Laerm;42968;52.094;4.328;2023-04-03T01:39:33;58.12;37.12;75.97;;
57092;Laerm;42968;52.094;4.328;2023-04-03T01:41:59;50.44;37.12;67.42;;
57092;Laerm;42968;52.094;4.328;2023-04-03T01:44:24;40.32;36.91;47.86;;
57092;Laerm;42968;52.094;4.328;2023-04-03T01:46:50;39.92;36.45;45.17;;
57092;Laerm;42968;52.094;4.328;2023-04-03T01:49:15;39.99;37.12;42.65;;
57092;Laerm;42968;52.094;4.328;2023-04-03T01:51:40;39.73;36.45;42.41;;
57092;Laerm;42968;52.094;4.328;2023-04-03T01:54:06;39.93;36.91;42.76;;
57092;Laerm;42968;52.094;4.328;2023-04-03T01:56:31;40.04;35.94;43.19;;
57092;Laerm;42968;52.094;4.328;2023-04-03T01:58:56;56.66;36.91;74.88;;
57092;Laerm;42968;52.094;4.328;2023-04-03T02:01:22;51.36;36.45;66.88;;
57092;Laerm;42968;52.094;4.328;2023-04-03T02:03:47;40.19;36.45;43.34;;
57092;Laerm;42968;52.094;4.328;2023-04-03T02:06:12;40.83;36.91;46.30;;
57092;Laerm;42968;52.094;4.328;2023-04-03T02:08:38;40.25;35.94;50.05;;
57092;Laerm;42968;52.094;4.328;2023-04-03T02:11:03;54.80;37.70;71.29;;
57092;Laerm;42968;52.094;4.328;2023-04-03T02:13:28;41.58;37.32;50.74;;
57092;Laerm;42968;52.094;4.328;2023-04-03T02:15:54;50.10;36.45;66.43;;
57092;Laerm;42968;52.094;4.328;2023-04-03T02:18:19;40.37;36.45;45.11;;
57092;Laerm;42968;52.094;4.328;2023-04-03T02:20:45;53.71;37.70;71.32;;
57092;Laerm;42968;52.094;4.328;2023-04-03T02:23:11;41.04;37.12;48.45;;
57092;Laerm;42968;52.094;4.328;2023-04-03T02:25:36;56.62;37.32;72.84;;
57092;Laerm;42968;52.094;4.328;2023-04-03T02:28:01;56.28;37.32;72.48;;
57092;Laerm;42968;52.094;4.328;2023-04-03T02:30:27;57.50;37.87;73.99;;
57092;Laerm;42968;52.094;4.328;2023-04-03T02:32:52;49.83;36.98;67.41;;
57092;Laerm;42968;52.094;4.328;2023-04-03T02:35:17;40.87;36.45;48.60;;
57092;Laerm;42968;52.094;4.328;2023-04-03T02:37:43;42.57;37.70;57.67;;
57092;Laerm;42968;52.094;4.328;2023-04-03T02:40:08;56.54;37.12;72.07;;
57092;Laerm;42968;52.094;4.328;2023-04-03T02:42:33;51.65;37.88;68.42;;
57092;Laerm;42968;52.094;4.328;2023-04-03T02:44:59;52.10;38.95;68.24;;
57092;Laerm;42968;52.094;4.328;2023-04-03T02:47:26;41.24;37.88;47.72;;
57092;Laerm;42968;52.094;4.328;2023-04-03T02:49:51;57.13;37.32;74.45;;
57092;Laerm;42968;52.094;4.328;2023-04-03T02:52:17;60.19;36.91;76.32;;
57092;Laerm;42968;52.094;4.328;2023-04-03T02:54:43;51.06;38.67;71.44;;
57092;Laerm;42968;52.094;4.328;2023-04-03T02:57:08;58.80;38.21;76.30;;
57092;Laerm;42968;52.094;4.328;2023-04-03T02:59:34;58.25;38.21;73.53;;
57092;Laerm;42968;52.094;4.328;2023-04-03T03:01:59;41.54;38.21;51.95;;
57092;Laerm;42968;52.094;4.328;2023-04-03T03:04:25;53.77;38.05;71.00;;
57092;Laerm;42968;52.094;4.328;2023-04-03T03:06:50;53.81;38.52;71.98;;
57092;Laerm;42968;52.094;4.328;2023-04-03T03:09:15;59.48;38.95;74.38;;
57092;Laerm;42968;52.094;4.328;2023-04-03T03:11:41;55.39;38.81;73.05;;
57092;Laerm;42968;52.094;4.328;2023-04-03T03:14:06;62.98;41.89;75.70;;
57092;Laerm;42968;52.094;4.328;2023-04-03T03:16:31;63.43;42.59;79.66;;
57092;Laerm;42968;52.094;4.328;2023-04-03T03:18:56;64.55;41.30;79.63;;
57092;Laerm;42968;52.094;4.328;2023-04-03T03:21:22;65.34;39.70;87.57;;
57092;Laerm;42968;52.094;4.328;2023-04-03T03:23:47;56.89;42.47;76.91;;
57092;Laerm;42968;52.094;4.328;2023-04-03T03:26:12;58.35;38.67;75.09;;
57092;Laerm;42968;52.094;4.328;2023-04-03T03:28:38;61.45;41.61;76.57;;
57092;Laerm;42968;52.094;4.328;2023-04-03T03:31:04;64.09;43.09;78.43;;
57092;Laerm;42968;52.094;4.328;2023-04-03T03:33:30;61.66;42.98;74.27;;
57092;Laerm;42968;52.094;4.328;2023-04-03T03:35:55;61.93;43.63;75.80;;
57092;Laerm;42968;52.094;4.328;2023-04-03T03:38:21;64.03;43.24;75.42;;
57092;Laerm;42968;52.094;4.328;2023-04-03T03:40:47;66.19;43.68;81.76;;
57092;Laerm;42968;52.094;4.328;2023-04-03T03:43:12;65.77;43.19;79.29;;
57092;Laerm;42968;52.094;4.328;2023-04-03T03:45:38;62.61;42.16;75.99;;
57092;Laerm;42968;52.094;4.328;2023-04-03T03:48:03;61.83;42.71;76.13;;
57092;Laerm;42968;52.094;4.328;2023-04-03T03:50:28;65.83;41.38;77.03;;
57092;Laerm;42968;52.094;4.328;2023-04-03T03:52:53;61.98;41.89;74.74;;
57092;Laerm;42968;52.094;4.328;2023-04-03T03:55:19;64.22;44.35;78.94;;
57092;Laerm;42968;52.094;4.328;2023-04-03T03:57:44;60.10;41.82;74.58;;
57092;Laerm;42968;52.094;4.328;2023-04-03T04:00:10;63.69;46.40;75.11;;
57092;Laerm;42968;52.094;4.328;2023-04-03T04:02:35;60.44;41.53;73.80;;
57092;Laerm;42968;52.094;4.328;2023-04-03T04:05:00;65.73;44.83;78.98;;
57092;Laerm;42968;52.094;4.328;2023-04-03T04:07:26;65.22;48.47;76.56;;
57092;Laerm;42968;52.094;4.328;2023-04-03T04:09:53;66.78;45.36;80.60;;
57092;Laerm;42968;52.094;4.328;2023-04-03T04:12:19;65.02;43.81;76.78;;
57092;Laerm;42968;52.094;4.328;2023-04-03T04:14:45;64.45;46.76;76.12;;
57092;Laerm;42968;52.094;4.328;2023-04-03T04:17:11;66.49;44.11;78.65;;
57092;Laerm;42968;52.094;4.328;2023-04-03T04:19:37;67.41;49.30;77.52;;
57092;Laerm;42968;52.094;4.328;2023-04-03T04:22:03;66.58;48.05;82.01;;
57092;Laerm;42968;52.094;4.328;2023-04-03T04:24:28;65.70;45.20;78.79;;
57092;Laerm;42968;52.094;4.328;2023-04-03T04:26:54;65.83;48.42;76.07;;
57092;Laerm;42968;52.094;4.328;2023-04-03T04:29:19;66.55;46.35;76.85;;
57092;Laerm;42968;52.094;4.328;2023-04-03T04:31:44;69.06;50.42;85.56;;
57092;Laerm;42968;52.094;4.328;2023-04-03T04:34:10;68.43;48.52;78.00;;
57092;Laerm;42968;52.094;4.328;2023-04-03T04:36:35;68.31;50.29;77.40;;
57092;Laerm;42968;52.094;4.328;2023-04-03T04:39:00;68.46;49.72;77.95;;
57092;Laerm;42968;52.094;4.328;2023-04-03T04:41:25;67.12;46.38;80.17;;
57092;Laerm;42968;52.094;4.328;2023-04-03T04:43:51;67.90;48.36;78.96;;
57092;Laerm;42968;52.094;4.328;2023-04-03T04:46:17;70.04;52.05;77.75;;
57092;Laerm;42968;52.094;4.328;2023-04-03T04:48:42;69.33;50.44;86.17;;
57092;Laerm;42968;52.094;4.328;2023-04-03T04:51:08;68.86;45.43;79.38;;
57092;Laerm;42968;52.094;4.328;2023-04-03T04:53:33;69.52;54.36;77.58;;
57092;Laerm;42968;52.094;4.328;2023-04-03T04:55:58;68.89;48.23;80.36;;
57092;Laerm;42968;52.094;4.328;2023-04-03T04:58:24;67.74;47.18;79.00;;
57092;Laerm;42968;52.094;4.328;2023-04-03T05:00:57;68.35;51.58;75.96;;
57092;Laerm;42968;52.094;4.328;2023-04-03T05:03:23;67.39;54.28;76.40;;
57092;Laerm;42968;52.094;4.328;2023-04-03T05:05:48;70.76;47.98;85.78;;
57092;Laerm;42968;52.094;4.328;2023-04-03T05:08:13;67.91;51.80;79.84;;
57092;Laerm;42968;52.094;4.328;2023-04-03T05:10:38;70.83;50.38;81.36;;
57092;Laerm;42968;52.094;4.328;2023-04-03T05:13:05;68.55;46.02;83.95;;
57092;Laerm;42968;52.094;4.328;2023-04-03T05:15:31;69.67;49.53;82.76;;
57092;Laerm;42968;52.094;4.328;2023-04-03T05:17:56;69.91;50.22;80.46;;
57092;Laerm;42968;52.094;4.328;2023-04-03T05:20:21;73.49;52.56;91.25;;
57092;Laerm;42968;52.094;4.328;2023-04-03T05:22:46;69.78;48.66;77.39;;
57092;Laerm;42968;52.094;4.328;2023-04-03T05:25:11;70.09;51.61;83.16;;
57092;Laerm;42968;52.094;4.328;2023-04-03T05:27:37;68.86;53.53;79.10;;
57092;Laerm;42968;52.094;4.328;2023-04-03T05:30:03;68.84;48.36;76.50;;
57092;Laerm;42968;52.094;4.328;2023-04-03T05:32:29;70.60;45.69;82.64;;
57092;Laerm;42968;52.094;4.328;2023-04-03T05:34:54;70.50;47.42;83.03;;
57092;Laerm;42968;52.094;4.328;2023-04-03T05:37:19;71.23;50.70;94.40;;
57092;Laerm;42968;52.094;4.328;2023-04-03T05:39:45;70.15;47.44;78.04;;
57092;Laerm;42968;52.094;4.328;2023-04-03T05:42:10;68.18;49.07;79.11;;
57092;Laerm;42968;52.094;4.328;2023-04-03T05:44:36;69.65;45.60;79.26;;
57092;Laerm;42968;52.094;4.328;2023-04-03T05:47:02;70.91;53.53;79.23;;
57092;Laerm;42968;52.094;4.328;2023-04-03T05:49:30;70.22;51.04;79.35;;
57092;Laerm;42968;52.094;4.328;2023-04-03T05:51:55;70.79;50.06;81.73;;
57092;Laerm;42968;52.094;4.328;2023-04-03T05:54:25;71.06;51.15;81.83;;
57092;Laerm;42968;52.094;4.328;2023-04-03T05:56:51;72.29;57.12;80.85;;
57092;Laerm;42968;52.094;4.328;2023-04-03T05:59:19;72.08;52.53;80.21;;
57092;Laerm;42968;52.094;4.328;2023-04-03T06:01:45;70.46;50.36;77.43;;
57092;Laerm;42968;52.094;4.328;2023-04-03T06:04:10;69.80;57.53;83.87;;
57092;Laerm;42968;52.094;4.328;2023-04-03T06:06:48;71.08;51.34;80.85;;
57092;Laerm;42968;52.094;4.328;2023-04-03T06:09:18;72.20;52.57;82.91;;
57092;Laerm;42968;52.094;4.328;2023-04-03T06:11:43;69.70;52.86;79.81;;
57092;Laerm;42968;52.094;4.328;2023-04-03T06:14:10;69.48;49.27;79.07;;
57092;Laerm;42968;52.094;4.328;2023-04-03T06:16:35;73.77;49.78;84.37;;
57092;Laerm;42968;52.094;4.328;2023-04-03T06:19:01;70.51;52.53;77.81;;
57092;Laerm;42968;52.094;4.328;2023-04-03T06:21:27;70.12;53.00;81.39;;
57092;Laerm;42968;52.094;4.328;2023-04-03T06:23:52;71.42;54.91;81.16;;
57092;Laerm;42968;52.094;4.328;2023-04-03T06:26:17;70.57;52.64;77.94;;
57092;Laerm;42968;52.094;4.328;2023-04-03T06:28:43;69.35;54.08;79.19;;
57092;Laerm;42968;52.094;4.328;2023-04-03T06:31:08;70.34;56.02;78.56;;
57092;Laerm;42968;52.094;4.328;2023-04-03T06:33:34;69.29;47.77;79.66;;
57092;Laerm;42968;52.094;4.328;2023-04-03T06:35:59;71.80;53.25;80.78;;
57092;Laerm;42968;52.094;4.328;2023-04-03T06:38:24;69.70;54.23;79.26;;
57092;Laerm;42968;52.094;4.328;2023-04-03T06:40:50;69.63;53.81;77.45;;
57092;Laerm;42968;52.094;4.328;2023-04-03T06:43:16;71.97;59.53;84.69;;
57092;Laerm;42968;52.094;4.328;2023-04-03T06:45:42;69.92;50.49;80.67;;
57092;Laerm;42968;52.094;4.328;2023-04-03T06:48:07;69.99;54.94;81.07;;
57092;Laerm;42968;52.094;4.328;2023-04-03T06:50:33;71.06;50.87;77.25;;
57092;Laerm;42968;52.094;4.328;2023-04-03T06:53:01;68.82;48.55;77.90;;
57092;Laerm;42968;52.094;4.328;2023-04-03T06:55:27;71.83;47.38;82.22;;
57092;Laerm;42968;52.094;4.328;2023-04-03T06:57:52;69.77;47.91;79.68;;
57092;Laerm;42968;52.094;4.328;2023-04-03T07:00:18;70.64;53.88;78.39;;
57092;Laerm;42968;52.094;4.328;2023-04-03T07:02:43;70.10;57.67;80.38;;
57092;Laerm;42968;52.094;4.328;2023-04-03T07:05:08;68.50;53.22;77.13;;
57092;Laerm;42968;52.094;4.328;2023-04-03T07:07:35;71.46;56.27;81.34;;
57092;Laerm;42968;52.094;4.328;2023-04-03T07:10:01;70.55;47.81;78.61;;
57092;Laerm;42968;52.094;4.328;2023-04-03T07:12:26;70.83;56.29;83.46;;
57092;Laerm;42968;52.094;4.328;2023-04-03T07:14:51;69.63;53.36;77.89;;
57092;Laerm;42968;52.094;4.328;2023-04-03T07:17:16;71.16;54.56;81.09;;
57092;Laerm;42968;52.094;4.328;2023-04-03T07:19:42;69.34;57.61;79.69;;
57092;Laerm;42968;52.094;4.328;2023-04-03T07:22:07;70.02;49.66;78.27;;
57092;Laerm;42968;52.094;4.328;2023-04-03T07:24:33;71.15;56.74;84.63;;
57092;Laerm;42968;52.094;4.328;2023-04-03T07:26:58;70.54;52.30;77.12;;
57092;Laerm;42968;52.094;4.328;2023-04-03T07:29:23;70.19;52.09;87.77;;
57092;Laerm;42968;52.094;4.328;2023-04-03T07:31:49;69.15;51.48;81.11;;
57092;Laerm;42968;52.094;4.328;2023-04-03T07:34:14;69.25;54.83;80.46;;
57092;Laerm;42968;52.094;4.328;2023-04-03T07:36:40;70.12;55.32;80.86;;
57092;Laerm;42968;52.094;4.328;2023-04-03T07:39:05;69.57;48.39;83.66;;
57092;Laerm;42968;52.094;4.328;2023-04-03T07:41:32;71.06;59.32;83.48;;
57092;Laerm;42968;52.094;4.328;2023-04-03T07:43:57;69.34;49.53;79.68;;
57092;Laerm;42968;52.094;4.328;2023-04-03T07:46:23;67.50;48.48;76.83;;
57092;Laerm;42968;52.094;4.328;2023-04-03T07:48:48;70.49;49.75;80.05;;
57092;Laerm;42968;52.094;4.328;2023-04-03T07:51:14;69.91;45.99;77.83;;
57092;Laerm;42968;52.094;4.328;2023-04-03T07:53:39;68.46;53.45;77.10;;
57092;Laerm;42968;52.094;4.328;2023-04-03T07:56:05;69.13;51.71;81.22;;
57092;Laerm;42968;52.094;4.328;2023-04-03T07:58:30;68.97;43.94;76.59;;
57092;Laerm;42968;52.094;4.328;2023-04-03T08:00:55;68.90;46.28;78.91;;
57092;Laerm;42968;52.094;4.328;2023-04-03T08:03:21;68.61;52.48;76.79;;
57092;Laerm;42968;52.094;4.328;2023-04-03T08:05:46;69.41;48.04;84.38;;
57092;Laerm;42968;52.094;4.328;2023-04-03T08:08:13;69.14;46.97;79.24;;
57092;Laerm;42968;52.094;4.328;2023-04-03T08:10:39;69.66;46.38;78.23;;
57092;Laerm;42968;52.094;4.328;2023-04-03T08:13:04;68.43;48.12;75.95;;
57092;Laerm;42968;52.094;4.328;2023-04-03T08:15:30;69.12;48.74;81.73;;
57092;Laerm;42968;52.094;4.328;2023-04-03T08:17:55;69.33;52.44;79.29;;
57092;Laerm;42968;52.094;4.328;2023-04-03T08:20:21;68.13;48.98;78.03;;
57092;Laerm;42968;52.094;4.328;2023-04-03T08:22:46;69.01;49.57;81.60;;
57092;Laerm;42968;52.094;4.328;2023-04-03T08:25:11;70.20;46.76;79.73;;
57092;Laerm;42968;52.094;4.328;2023-04-03T08:27:37;70.32;56.26;79.57;;
57092;Laerm;42968;52.094;4.328;2023-04-03T08:30:03;69.12;53.25;79.43;;
57092;Laerm;42968;52.094;4.328;2023-04-03T08:32:29;69.62;50.15;79.88;;
57092;Laerm;42968;52.094;4.328;2023-04-03T08:34:54;69.80;53.30;94.58;;
57092;Laerm;42968;52.094;4.328;2023-04-03T08:37:19;70.53;51.01;82.73;;
57092;Laerm;42968;52.094;4.328;2023-04-03T08:39:45;69.80;49.56;81.88;;
57092;Laerm;42968;52.094;4.328;2023-04-03T08:45:01;70.42;47.14;82.98;;
57092;Laerm;42968;52.094;4.328;2023-04-03T08:57:14;70.35;56.29;78.44;;
57092;Laerm;42968;52.094;4.328;2023-04-03T08:59:39;83.78;52.42;106.18;;
57092;Laerm;42968;52.094;4.328;2023-04-03T09:02:28;66.42;48.60;75.58;;
57092;Laerm;42968;52.094;4.328;2023-04-03T09:04:51;69.14;52.13;76.86;;
57092;Laerm;42968;52.094;4.328;2023-04-03T09:07:21;70.48;54.61;81.68;;
57092;Laerm;42968;52.094;4.328;2023-04-03T09:09:48;68.78;47.55;79.43;;
57092;Laerm;42968;52.094;4.328;2023-04-03T09:12:21;69.20;53.30;79.23;;
57092;Laerm;42968;52.094;4.328;2023-04-03T09:17:33;68.42;52.10;79.41;;
57092;Laerm;42968;52.094;4.328;2023-04-03T09:22:27;79.89;49.50;100.67;;
57092;Laerm;42968;52.094;4.328;2023-04-03T09:27:51;70.17;51.59;98.89;;
57092;Laerm;42968;52.094;4.328;2023-04-03T09:30:21;69.95;47.79;81.57;;
57092;Laerm;42968;52.094;4.328;2023-04-03T09:32:47;69.75;52.74;82.15;;
57092;Laerm;42968;52.094;4.328;2023-04-03T09:37:43;68.27;48.26;79.57;;
57092;Laerm;42968;52.094;4.328;2023-04-03T09:42:54;69.66;51.85;82.69;;
57092;Laerm;42968;52.094;4.328;2023-04-03T09:45:32;69.15;51.41;79.49;;
57092;Laerm;42968;52.094;4.328;2023-04-03T09:48:05;69.10;56.65;77.30;;
57092;Laerm;42968;52.094;4.328;2023-04-03T09:50:32;68.93;51.75;82.09;;
57092;Laerm;42968;52.094;4.328;2023-04-03T09:52:57;68.68;49.47;78.08;;
57092;Laerm;42968;52.094;4.328;2023-04-03T09:55:24;69.45;56.35;87.86;;
57092;Laerm;42968;52.094;4.328;2023-04-03T09:57:57;69.25;47.81;81.17;;
57092;Laerm;42968;52.094;4.328;2023-04-03T10:00:41;67.45;52.16;78.20;;
57092;Laerm;42968;52.094;4.328;2023-04-03T10:03:23;67.29;50.96;75.32;;
57092;Laerm;42968;52.094;4.328;2023-04-03T10:05:49;68.73;50.30;77.33;;
57092;Laerm;42968;52.094;4.328;2023-04-03T10:10:42;70.50;55.73;79.26;;
57092;Laerm;42968;52.094;4.328;2023-04-03T10:13:12;69.41;52.55;78.29;;
57092;Laerm;42968;52.094;4.328;2023-04-03T10:15:50;67.22;49.73;77.02;;
57092;Laerm;42968;52.094;4.328;2023-04-03T10:18:27;70.01;48.13;78.99;;
57092;Laerm;42968;52.094;4.328;2023-04-03T10:20:54;69.01;48.83;76.88;;
57092;Laerm;42968;52.094;4.328;2023-04-03T10:23:24;68.54;53.56;79.96;;
57092;Laerm;42968;52.094;4.328;2023-04-03T10:30:58;68.14;52.06;77.56;;
57092;Laerm;42968;52.094;4.328;2023-04-03T10:38:49;67.98;53.78;75.42;;
57092;Laerm;42968;52.094;4.328;2023-04-03T10:41:17;68.40;54.57;79.27;;
57092;Laerm;42968;52.094;4.328;2023-04-03T10:46:37;70.49;57.91;85.05;;
57092;Laerm;42968;52.094;4.328;2023-04-03T10:51:45;70.24;51.48;82.32;;
57092;Laerm;42968;52.094;4.328;2023-04-03T10:59:37;66.65;52.45;76.17;;
57092;Laerm;42968;52.094;4.328;2023-04-03T11:02:06;70.04;56.37;90.88;;
57092;Laerm;42968;52.094;4.328;2023-04-03T11:04:34;67.34;51.34;78.97;;
57092;Laerm;42968;52.094;4.328;2023-04-03T11:07:01;68.76;56.32;78.99;;
57092;Laerm;42968;52.094;4.328;2023-04-03T11:09:30;67.79;51.30;76.64;;
57092;Laerm;42968;52.094;4.328;2023-04-03T11:12:06;70.00;50.72;83.96;;
57092;Laerm;42968;52.094;4.328;2023-04-03T11:14:35;69.00;52.48;78.89;;
57092;Laerm;42968;52.094;4.328;2023-04-03T11:22:10;68.71;48.12;77.12;;
57092;Laerm;42968;52.094;4.328;2023-04-03T11:24:39;70.44;57.72;78.82;;
57092;Laerm;42968;52.094;4.328;2023-04-03T11:27:08;69.24;48.43;78.39;;
57092;Laerm;42968;52.094;4.328;2023-04-03T11:29:39;68.19;46.15;75.86;;
57092;Laerm;42968;52.094;4.328;2023-04-03T11:36:59;69.06;53.70;78.07;;
57092;Laerm;42968;52.094;4.328;2023-04-03T11:39:30;69.25;52.57;78.50;;
57092;Laerm;42968;52.094;4.328;2023-04-03T11:44:41;69.11;53.95;90.29;;
57092;Laerm;42968;52.094;4.328;2023-04-03T11:47:07;68.16;45.57;79.54;;
57092;Laerm;42968;52.094;4.328;2023-04-03T11:55:02;68.07;48.10;78.08;;
57092;Laerm;42968;52.094;4.328;2023-04-03T12:08:26;69.06;52.55;79.26;;
57092;Laerm;42968;52.094;4.328;2023-04-03T12:16:19;68.90;50.96;79.09;;
57092;Laerm;42968;52.094;4.328;2023-04-03T12:21:15;70.53;50.31;82.98;;
57092;Laerm;42968;52.094;4.328;2023-04-03T12:28:54;70.13;51.70;78.19;;
57092;Laerm;42968;52.094;4.328;2023-04-03T12:31:20;70.98;45.27;84.49;;
57092;Laerm;42968;52.094;4.328;2023-04-03T12:44:21;72.62;48.21;91.67;;
57092;Laerm;42968;52.094;4.328;2023-04-03T12:46:51;69.39;51.13;78.72;;
57092;Laerm;42968;52.094;4.328;2023-04-03T12:49:24;69.36;53.31;78.50;;
57092;Laerm;42968;52.094;4.328;2023-04-03T12:51:52;76.49;54.43;96.63;;
57092;Laerm;42968;52.094;4.328;2023-04-03T12:56:48;71.34;50.73;79.60;;
57092;Laerm;42968;52.094;4.328;2023-04-03T12:59:15;69.06;47.48;77.14;;
57092;Laerm;42968;52.094;4.328;2023-04-03T13:01:42;69.77;50.27;80.49;;
57092;Laerm;42968;52.094;4.328;2023-04-03T13:04:08;69.74;56.53;84.94;;
57092;Laerm;42968;52.094;4.328;2023-04-03T13:06:40;67.82;53.98;75.44;;
57092;Laerm;42968;52.094;4.328;2023-04-03T13:09:06;69.52;47.16;78.56;;
57092;Laerm;42968;52.094;4.328;2023-04-03T13:11:33;69.05;45.77;79.14;;
57092;Laerm;42968;52.094;4.328;2023-04-03T13:14:04;69.74;50.95;79.69;;
57092;Laerm;42968;52.094;4.328;2023-04-03T13:16:31;68.32;48.70;78.20;;
57092;Laerm;42968;52.094;4.328;2023-04-03T13:18:56;70.39;48.74;77.74;;
57092;Laerm;42968;52.094;4.328;2023-04-03T13:21:23;67.33;45.89;74.39;;
57092;Laerm;42968;52.094;4.328;2023-04-03T13:23:51;68.58;54.24;76.99;;
57092;Laerm;42968;52.094;4.328;2023-04-03T13:26:18;67.69;48.37;76.71;;
57092;Laerm;42968;52.094;4.328;2023-04-03T13:28:45;69.86;52.15;87.16;;
57092;Laerm;42968;52.094;4.328;2023-04-03T13:33:43;67.43;46.02;80.92;;
57092;Laerm;42968;52.094;4.328;2023-04-03T13:36:19;68.20;45.36;76.13;;
57092;Laerm;42968;52.094;4.328;2023-04-03T13:38:45;69.38;55.04;79.08;;
57092;Laerm;42968;52.094;4.328;2023-04-03T13:41:25;68.33;45.23;77.04;;
57092;Laerm;42968;52.094;4.328;2023-04-03T13:43:51;69.61;56.68;81.77;;
57092;Laerm;42968;52.094;4.328;2023-04-03T13:48:46;70.01;60.53;86.49;;
57092;Laerm;42968;52.094;4.328;2023-04-03T13:56:19;69.26;49.43;81.15;;
57092;Laerm;42968;52.094;4.328;2023-04-03T13:58:57;68.22;52.27;75.07;;
57092;Laerm;42968;52.094;4.328;2023-04-03T14:01:23;69.69;52.38;80.15;;
57092;Laerm;42968;52.094;4.328;2023-04-03T14:03:53;68.23;48.00;76.33;;
57092;Laerm;42968;52.094;4.328;2023-04-03T14:06:19;70.56;58.70;77.96;;
57092;Laerm;42968;52.094;4.328;2023-04-03T14:08:45;67.97;49.12;77.97;;
57092;Laerm;42968;52.094;4.328;2023-04-03T14:11:14;69.91;51.03;77.42;;
57092;Laerm;42968;52.094;4.328;2023-04-03T14:13:40;71.37;51.46;77.71;;
57092;Laerm;42968;52.094;4.328;2023-04-03T14:16:05;68.40;49.63;82.07;;
57092;Laerm;42968;52.094;4.328;2023-04-03T14:18:31;67.85;48.16;75.55;;
57092;Laerm;42968;52.094;4.328;2023-04-03T14:20:57;68.78;54.95;77.52;;
57092;Laerm;42968;52.094;4.328;2023-04-03T14:23:23;70.88;51.75;78.16;;
57092;Laerm;42968;52.094;4.328;2023-04-03T14:25:48;68.49;51.19;81.46;;
57092;Laerm;42968;52.094;4.328;2023-04-03T14:28:16;69.11;52.56;79.50;;
57092;Laerm;42968;52.094;4.328;2023-04-03T14:30:42;70.36;50.85;77.33;;
57092;Laerm;42968;52.094;4.328;2023-04-03T14:33:09;70.48;55.84;83.78;;
57092;Laerm;42968;52.094;4.328;2023-04-03T14:35:36;70.30;44.97;82.58;;
57092;Laerm;42968;52.094;4.328;2023-04-03T14:38:01;70.00;57.13;81.45;;
57092;Laerm;42968;52.094;4.328;2023-04-03T14:40:27;68.60;58.57;75.71;;
57092;Laerm;42968;52.094;4.328;2023-04-03T14:42:52;70.58;47.61;80.23;;
57092;Laerm;42968;52.094;4.328;2023-04-03T14:45:20;70.97;60.06;78.35;;
57092;Laerm;42968;52.094;4.328;2023-04-03T14:47:47;69.59;53.66;78.92;;
57092;Laerm;42968;52.094;4.328;2023-04-03T14:50:16;68.57;48.80;76.42;;
57092;Laerm;42968;52.094;4.328;2023-04-03T14:52:42;70.09;56.57;77.35;;
57092;Laerm;42968;52.094;4.328;2023-04-03T14:55:08;69.42;50.21;81.35;;
57092;Laerm;42968;52.094;4.328;2023-04-03T14:57:33;69.81;50.00;77.89;;
57092;Laerm;42968;52.094;4.328;2023-04-03T14:59:58;69.31;50.24;78.70;;
57092;Laerm;42968;52.094;4.328;2023-04-03T15:04:54;68.96;56.65;76.05;;
57092;Laerm;42968;52.094;4.328;2023-04-03T15:07:19;68.98;50.56;83.83;;
57092;Laerm;42968;52.094;4.328;2023-04-03T15:09:45;68.16;46.78;78.99;;
57092;Laerm;42968;52.094;4.328;2023-04-03T15:12:10;69.89;59.93;83.11;;
57092;Laerm;42968;52.094;4.328;2023-04-03T15:14:36;68.46;53.74;76.30;;
57092;Laerm;42968;52.094;4.328;2023-04-03T15:17:02;71.32;55.90;78.13;;
57092;Laerm;42968;52.094;4.328;2023-04-03T15:19:28;70.53;51.12;78.97;;
57092;Laerm;42968;52.094;4.328;2023-04-03T15:21:54;69.52;50.82;80.84;;
57092;Laerm;42968;52.094;4.328;2023-04-03T15:24:19;72.38;50.44;93.73;;
57092;Laerm;42968;52.094;4.328;2023-04-03T15:26:45;69.22;53.90;77.96;;
57092;Laerm;42968;52.094;4.328;2023-04-03T15:29:11;67.62;50.85;77.74;;
57092;Laerm;42968;52.094;4.328;2023-04-03T15:31:36;69.61;52.94;78.15;;
57092;Laerm;42968;52.094;4.328;2023-04-03T15:34:02;69.18;47.90;82.01;;
57092;Laerm;42968;52.094;4.328;2023-04-03T15:36:28;70.58;51.37;78.11;;
57092;Laerm;42968;52.094;4.328;2023-04-03T15:38:53;70.23;59.35;78.81;;
57092;Laerm;42968;52.094;4.328;2023-04-03T15:41:18;69.93;47.52;79.06;;
57092;Laerm;42968;52.094;4.328;2023-04-03T15:43:44;68.60;54.64;83.76;;
57092;Laerm;42968;52.094;4.328;2023-04-03T15:46:09;67.90;53.51;75.50;;